Gatzke, Minnesota
Current Conditions -  °F | °C
As of 2:34 PM on Monday 24 Nov 2014 (Local Time) from KROX Reporting Station
Clear Clear  
Wind Chill:   Ceiling: Unl
Heat Index: 18°   Visibility: 10mi
Dew Point: 10°   Wind: 16mph
Humidity: 73%   Direction: 330°NNW
Pressure: 29.76"   Gusts: NA
Location:  48.42°N, 95.78°W
Report Text: KROX 242034Z AUTO 33014KT 10SM CLR M08/M12 A2976 RMK AO2
Loading
Personal Weather Stations






























Interactive Weather Map New forecast layout! Learn more

10-Day Weather Forecast

Advertisements
Track Severe Weather on mobile